APG106 RPLL-RPVE
Flight info
| Callsign | APG106 |
|---|---|
| Flight time | 0h 35m |
| Altitude | 25000 |
| Route | VERDE2R VERDE W24 TAPER TAPER7B |
| Aircraft | A320/M-SDE3FGHIRWY/LB1 |
Departure
| Time | 2026-04-22 16:35 |
|---|---|
| Airport | Ninoy Aquino International Airport (RPLL) |
Arrival
| Time | 2026-04-22 17:10 |
|---|---|
| Airport | Godofredo P. Ramos Airport (RPVE) |
| Time | Latitude | Longitude | Altitude | Speed | Heading |
|---|---|---|---|---|---|
| 2026-04-22 16:13 | 14.50862 | 121.01337 | 69 ft | 0 kts | 329° |
| 2026-04-22 16:27 | 14.50850 | 121.01345 | 59 ft | 2 kts | 330° |
| 2026-04-22 16:27 | 14.50837 | 121.01353 | 67 ft | 2 kts | 329° |
| 2026-04-22 16:27 | 14.50823 | 121.01361 | 62 ft | 2 kts | 331° |
| 2026-04-22 16:28 | 14.50808 | 121.01369 | 64 ft | 2 kts | 349° |
| 2026-04-22 16:28 | 14.50791 | 121.01373 | 64 ft | 2 kts | 292° |
| 2026-04-22 16:28 | 14.50792 | 121.01389 | 59 ft | 2 kts | 245° |
| 2026-04-22 16:28 | 14.50795 | 121.01396 | 59 ft | 0 kts | 240° |
| 2026-04-22 16:30 | 14.50789 | 121.01385 | 59 ft | 6 kts | 240° |
| 2026-04-22 16:31 | 14.50754 | 121.01327 | 65 ft | 10 kts | 221° |
| 2026-04-22 16:31 | 14.50672 | 121.01311 | 62 ft | 15 kts | 209° |
| 2026-04-22 16:31 | 14.50604 | 121.01202 | 64 ft | 19 kts | 239° |
| 2026-04-22 16:31 | 14.50549 | 121.01102 | 63 ft | 19 kts | 238° |
| 2026-04-22 16:32 | 14.50487 | 121.00986 | 64 ft | 20 kts | 242° |
| 2026-04-22 16:32 | 14.50407 | 121.00847 | 62 ft | 23 kts | 240° |
| 2026-04-22 16:32 | 14.50327 | 121.00705 | 62 ft | 24 kts | 242° |
| 2026-04-22 16:33 | 14.50234 | 121.00538 | 64 ft | 30 kts | 240° |
| 2026-04-22 16:33 | 14.50129 | 121.00349 | 63 ft | 28 kts | 240° |
| 2026-04-22 16:33 | 14.50055 | 121.00216 | 64 ft | 22 kts | 240° |
| 2026-04-22 16:33 | 14.49980 | 121.00082 | 67 ft | 24 kts | 240° |
| 2026-04-22 16:34 | 14.49896 | 120.99967 | 67 ft | 14 kts | 196° |
| 2026-04-22 16:34 | 14.49815 | 121.00002 | 64 ft | 15 kts | 131° |
| 2026-04-22 16:34 | 14.49831 | 121.00090 | 60 ft | 9 kts | 59° |
| 2026-04-22 16:34 | 14.49955 | 121.00315 | 62 ft | 75 kts | 61° |
| 2026-04-22 16:35 | 14.50331 | 121.00992 | 65 ft | 138 kts | 60° |
| 2026-04-22 16:35 | 14.50872 | 121.01995 | 250 ft | 170 kts | 58° |
| 2026-04-22 16:35 | 14.51435 | 121.03020 | 1086 ft | 162 kts | 59° |
| 2026-04-22 16:35 | 14.52309 | 121.03814 | 1638 ft | 183 kts | 31° |
| 2026-04-22 16:36 | 14.53416 | 121.04482 | 2309 ft | 187 kts | 36° |
| 2026-04-22 16:36 | 14.54457 | 121.05279 | 3014 ft | 192 kts | 40° |
| 2026-04-22 16:36 | 14.55594 | 121.06131 | 3516 ft | 208 kts | 39° |
| 2026-04-22 16:36 | 14.56838 | 121.06984 | 4019 ft | 224 kts | 30° |
| 2026-04-22 16:37 | 14.58131 | 121.07976 | 4489 ft | 241 kts | 53° |
| 2026-04-22 16:37 | 14.58790 | 121.09580 | 5183 ft | 252 kts | 82° |
| 2026-04-22 16:37 | 14.58600 | 121.11419 | 5732 ft | 269 kts | 111° |
| 2026-04-22 16:37 | 14.57515 | 121.13020 | 6539 ft | 278 kts | 138° |
| 2026-04-22 16:38 | 14.55795 | 121.13957 | 7359 ft | 286 kts | 165° |
| 2026-04-22 16:38 | 14.53802 | 121.14187 | 8232 ft | 290 kts | 176° |
| 2026-04-22 16:38 | 14.51802 | 121.14257 | 9102 ft | 294 kts | 176° |
| 2026-04-22 16:38 | 14.49715 | 121.14303 | 9999 ft | 298 kts | 177° |
| 2026-04-22 16:39 | 14.47586 | 121.14343 | 10404 ft | 318 kts | 177° |
| 2026-04-22 16:39 | 14.45286 | 121.14395 | 10646 ft | 342 kts | 177° |
| 2026-04-22 16:39 | 14.42882 | 121.14316 | 11076 ft | 356 kts | 184° |
| 2026-04-22 16:39 | 14.40395 | 121.14052 | 11731 ft | 362 kts | 185° |
| 2026-04-22 16:40 | 14.37882 | 121.13752 | 12439 ft | 365 kts | 186° |
| 2026-04-22 16:40 | 14.35346 | 121.13434 | 13142 ft | 369 kts | 186° |
| 2026-04-22 16:40 | 14.30208 | 121.12793 | 14439 ft | 375 kts | 186° |
| 2026-04-22 16:41 | 14.27606 | 121.12475 | 15044 ft | 378 kts | 186° |
| 2026-04-22 16:41 | 14.24981 | 121.12158 | 15628 ft | 381 kts | 186° |
| 2026-04-22 16:41 | 14.22335 | 121.11840 | 16207 ft | 384 kts | 187° |
| 2026-04-22 16:41 | 14.19665 | 121.11518 | 16780 ft | 387 kts | 187° |
| 2026-04-22 16:42 | 14.16998 | 121.11196 | 17321 ft | 391 kts | 187° |
| 2026-04-22 16:42 | 14.14284 | 121.10866 | 17869 ft | 394 kts | 187° |
| 2026-04-22 16:42 | 14.11549 | 121.10534 | 18374 ft | 397 kts | 187° |
| 2026-04-22 16:42 | 14.08790 | 121.10199 | 18858 ft | 400 kts | 187° |
| 2026-04-22 16:43 | 14.06021 | 121.09864 | 19323 ft | 402 kts | 187° |
| 2026-04-22 16:43 | 14.03233 | 121.09526 | 19798 ft | 404 kts | 187° |
| 2026-04-22 16:43 | 14.00437 | 121.09188 | 20242 ft | 406 kts | 187° |
| 2026-04-22 16:43 | 13.97615 | 121.08847 | 20706 ft | 409 kts | 187° |
| 2026-04-22 16:44 | 13.94811 | 121.08508 | 21139 ft | 412 kts | 187° |
| 2026-04-22 16:44 | 13.92124 | 121.08186 | 21553 ft | 414 kts | 187° |
| 2026-04-22 16:44 | 13.89256 | 121.07844 | 21999 ft | 416 kts | 187° |
| 2026-04-22 16:44 | 13.86376 | 121.07498 | 22432 ft | 418 kts | 187° |
| 2026-04-22 16:45 | 13.83515 | 121.07154 | 22854 ft | 421 kts | 187° |
| 2026-04-22 16:45 | 13.80594 | 121.06805 | 23275 ft | 423 kts | 188° |
| 2026-04-22 16:45 | 13.77660 | 121.06456 | 23657 ft | 425 kts | 188° |
| 2026-04-22 16:45 | 13.74714 | 121.06105 | 24010 ft | 427 kts | 188° |
| 2026-04-22 16:46 | 13.71754 | 121.05747 | 24355 ft | 429 kts | 188° |
| 2026-04-22 16:46 | 13.68782 | 121.05385 | 24702 ft | 431 kts | 188° |
| 2026-04-22 16:46 | 13.65790 | 121.05022 | 24863 ft | 432 kts | 188° |
| 2026-04-22 16:46 | 13.62798 | 121.04663 | 24918 ft | 435 kts | 188° |
| 2026-04-22 16:47 | 13.59778 | 121.04302 | 24925 ft | 436 kts | 188° |
| 2026-04-22 16:47 | 13.56768 | 121.03943 | 24926 ft | 436 kts | 187° |
| 2026-04-22 16:47 | 13.54763 | 121.03785 | 24926 ft | 436 kts | 182° |
| 2026-04-22 16:47 | 13.50759 | 121.04238 | 24931 ft | 439 kts | 167° |
| 2026-04-22 16:48 | 13.47872 | 121.05251 | 24930 ft | 441 kts | 157° |
| 2026-04-22 16:48 | 13.45292 | 121.06732 | 24933 ft | 442 kts | 148° |
| 2026-04-22 16:48 | 13.42726 | 121.08488 | 24933 ft | 443 kts | 147° |
| 2026-04-22 16:48 | 13.40181 | 121.10270 | 24931 ft | 443 kts | 147° |
| 2026-04-22 16:49 | 13.37649 | 121.12067 | 24929 ft | 443 kts | 147° |
| 2026-04-22 16:49 | 13.35120 | 121.13871 | 24931 ft | 443 kts | 147° |
| 2026-04-22 16:49 | 13.32591 | 121.15674 | 24929 ft | 442 kts | 147° |
| 2026-04-22 16:49 | 13.30056 | 121.17468 | 24928 ft | 442 kts | 147° |
| 2026-04-22 16:50 | 13.27519 | 121.19246 | 24930 ft | 442 kts | 147° |
| 2026-04-22 16:50 | 13.24976 | 121.21020 | 24930 ft | 442 kts | 147° |
| 2026-04-22 16:50 | 13.22436 | 121.22795 | 24930 ft | 442 kts | 147° |
| 2026-04-22 16:50 | 13.19894 | 121.24578 | 24932 ft | 442 kts | 147° |
| 2026-04-22 16:51 | 13.17362 | 121.26354 | 24932 ft | 442 kts | 147° |
| 2026-04-22 16:51 | 13.14817 | 121.28136 | 24930 ft | 441 kts | 147° |
| 2026-04-22 16:51 | 13.12283 | 121.29910 | 24929 ft | 441 kts | 147° |
| 2026-04-22 16:51 | 13.09747 | 121.31685 | 24933 ft | 441 kts | 147° |
| 2026-04-22 16:52 | 13.07213 | 121.33460 | 24930 ft | 441 kts | 147° |
| 2026-04-22 16:52 | 13.04681 | 121.35233 | 24926 ft | 441 kts | 147° |
| 2026-04-22 16:52 | 13.02143 | 121.37009 | 24925 ft | 441 kts | 147° |
| 2026-04-22 16:52 | 12.99600 | 121.38787 | 24926 ft | 441 kts | 147° |
| 2026-04-22 16:53 | 12.97099 | 121.40535 | 24921 ft | 441 kts | 147° |
| 2026-04-22 16:53 | 12.94564 | 121.42306 | 24920 ft | 441 kts | 147° |
| 2026-04-22 16:53 | 12.92034 | 121.44075 | 24918 ft | 441 kts | 147° |
| 2026-04-22 16:53 | 12.89498 | 121.45848 | 24917 ft | 441 kts | 147° |
| 2026-04-22 16:54 | 12.86964 | 121.47619 | 24917 ft | 441 kts | 147° |
| 2026-04-22 16:54 | 12.84426 | 121.49391 | 24915 ft | 441 kts | 147° |
| 2026-04-22 16:54 | 12.81896 | 121.51161 | 24912 ft | 441 kts | 147° |
| 2026-04-22 16:54 | 12.79366 | 121.52935 | 24908 ft | 440 kts | 147° |
| 2026-04-22 16:55 | 12.76836 | 121.54708 | 24907 ft | 440 kts | 147° |
| 2026-04-22 16:55 | 12.74308 | 121.56475 | 24585 ft | 441 kts | 147° |
| 2026-04-22 16:55 | 12.71948 | 121.58119 | 23779 ft | 444 kts | 147° |
| 2026-04-22 16:55 | 12.69386 | 121.59901 | 23057 ft | 442 kts | 147° |
| 2026-04-22 16:56 | 12.66862 | 121.61658 | 22418 ft | 437 kts | 147° |
| 2026-04-22 16:56 | 12.64365 | 121.63397 | 21829 ft | 431 kts | 147° |
| 2026-04-22 16:56 | 12.61899 | 121.65115 | 21265 ft | 426 kts | 147° |
| 2026-04-22 16:56 | 12.59463 | 121.66811 | 20714 ft | 420 kts | 147° |
| 2026-04-22 16:57 | 12.57060 | 121.68487 | 20184 ft | 415 kts | 147° |
| 2026-04-22 16:57 | 12.54689 | 121.70140 | 19666 ft | 411 kts | 147° |
| 2026-04-22 16:57 | 12.52338 | 121.71778 | 19149 ft | 407 kts | 147° |
| 2026-04-22 16:57 | 12.50007 | 121.73402 | 18632 ft | 403 kts | 146° |
| 2026-04-22 16:58 | 12.48473 | 121.74470 | 18285 ft | 401 kts | 146° |
| 2026-04-22 16:58 | 12.45393 | 121.76616 | 17515 ft | 398 kts | 146° |
| 2026-04-22 16:58 | 12.43885 | 121.77667 | 17162 ft | 395 kts | 146° |
| 2026-04-22 16:58 | 12.40885 | 121.79756 | 16443 ft | 392 kts | 146° |
| 2026-04-22 16:59 | 12.38639 | 121.81319 | 15898 ft | 389 kts | 146° |
| 2026-04-22 16:59 | 12.36298 | 121.82685 | 15356 ft | 387 kts | 156° |
| 2026-04-22 16:59 | 12.33766 | 121.83596 | 14795 ft | 385 kts | 163° |
| 2026-04-22 16:59 | 12.31189 | 121.84358 | 14248 ft | 384 kts | 163° |
| 2026-04-22 17:00 | 12.29454 | 121.84873 | 13873 ft | 383 kts | 163° |
| 2026-04-22 17:00 | 12.24387 | 121.86381 | 12698 ft | 379 kts | 163° |
| 2026-04-22 17:00 | 12.21831 | 121.87140 | 12120 ft | 376 kts | 163° |
| 2026-04-22 17:01 | 12.19463 | 121.87843 | 11577 ft | 373 kts | 163° |
| 2026-04-22 17:01 | 12.16977 | 121.88582 | 11002 ft | 370 kts | 163° |
| 2026-04-22 17:01 | 12.14510 | 121.89315 | 10512 ft | 365 kts | 163° |
| 2026-04-22 17:01 | 12.12124 | 121.90022 | 10389 ft | 348 kts | 163° |
| 2026-04-22 17:02 | 12.09846 | 121.90699 | 10271 ft | 334 kts | 163° |
| 2026-04-22 17:02 | 12.07636 | 121.91273 | 10154 ft | 321 kts | 172° |
| 2026-04-22 17:02 | 12.05454 | 121.91158 | 10039 ft | 310 kts | 193° |
| 2026-04-22 17:02 | 12.03511 | 121.90279 | 9856 ft | 303 kts | 214° |
| 2026-04-22 17:03 | 12.02015 | 121.88783 | 9511 ft | 302 kts | 233° |
| 2026-04-22 17:03 | 12.00812 | 121.87024 | 9084 ft | 302 kts | 234° |
| 2026-04-22 17:03 | 11.99610 | 121.85264 | 8662 ft | 302 kts | 234° |
| 2026-04-22 17:03 | 11.98402 | 121.83504 | 8219 ft | 302 kts | 234° |
| 2026-04-22 17:04 | 11.97195 | 121.81748 | 7797 ft | 302 kts | 234° |
| 2026-04-22 17:04 | 11.96005 | 121.80023 | 7400 ft | 301 kts | 234° |
| 2026-04-22 17:04 | 11.94775 | 121.78242 | 6795 ft | 307 kts | 234° |
| 2026-04-22 17:04 | 11.93559 | 121.76478 | 6445 ft | 305 kts | 234° |
| 2026-04-22 17:05 | 11.92247 | 121.74798 | 6043 ft | 300 kts | 218° |
| 2026-04-22 17:05 | 11.90413 | 121.73902 | 5625 ft | 291 kts | 185° |
| 2026-04-22 17:05 | 11.88456 | 121.74129 | 5184 ft | 281 kts | 155° |
| 2026-04-22 17:05 | 11.86695 | 121.74965 | 4768 ft | 278 kts | 149° |
| 2026-04-22 17:06 | 11.85015 | 121.75910 | 4329 ft | 274 kts | 141° |
| 2026-04-22 17:06 | 11.83864 | 121.77382 | 3931 ft | 262 kts | 107° |
| 2026-04-22 17:06 | 11.83785 | 121.79179 | 3594 ft | 253 kts | 75° |
| 2026-04-22 17:06 | 11.84454 | 121.80821 | 3260 ft | 249 kts | 62° |
| 2026-04-22 17:07 | 11.85332 | 121.82307 | 2906 ft | 236 kts | 59° |
| 2026-04-22 17:07 | 11.86183 | 121.83663 | 2588 ft | 218 kts | 59° |
| 2026-04-22 17:07 | 11.86955 | 121.84939 | 2279 ft | 204 kts | 61° |
| 2026-04-22 17:07 | 11.87651 | 121.86155 | 2012 ft | 193 kts | 62° |
| 2026-04-22 17:08 | 11.88283 | 121.87309 | 1759 ft | 184 kts | 62° |
| 2026-04-22 17:08 | 11.88870 | 121.88408 | 1534 ft | 168 kts | 62° |
| 2026-04-22 17:08 | 11.89396 | 121.89411 | 1299 ft | 152 kts | 63° |
| 2026-04-22 17:08 | 11.89872 | 121.90330 | 1104 ft | 142 kts | 62° |
| 2026-04-22 17:09 | 11.90313 | 121.91189 | 921 ft | 134 kts | 62° |
| 2026-04-22 17:09 | 11.90693 | 121.91935 | 763 ft | 131 kts | 62° |
| 2026-04-22 17:09 | 11.91119 | 121.92774 | 584 ft | 132 kts | 63° |
| 2026-04-22 17:09 | 11.91542 | 121.93607 | 401 ft | 133 kts | 61° |
| 2026-04-22 17:10 | 11.91964 | 121.94442 | 210 ft | 133 kts | 63° |
| 2026-04-22 17:10 | 11.92389 | 121.95266 | 41 ft | 133 kts | 65° |
| 2026-04-22 17:10 | 11.92758 | 121.95995 | 27 ft | 101 kts | 62° |
| 2026-04-22 17:10 | 11.92933 | 121.96340 | 25 ft | 9 kts | 63° |
| 2026-04-22 17:11 | 11.92968 | 121.96416 | 24 ft | 15 kts | 68° |
| 2026-04-22 17:11 | 11.92903 | 121.96488 | 27 ft | 19 kts | 153° |
| 2026-04-22 17:11 | 11.92834 | 121.96524 | 25 ft | 14 kts | 155° |
| 2026-04-22 17:11 | 11.92792 | 121.96513 | 26 ft | 10 kts | 245° |
| 2026-04-22 17:12 | 11.92759 | 121.96443 | 26 ft | 15 kts | 243° |
| 2026-04-22 17:12 | 11.92738 | 121.96423 | 26 ft | 3 kts | 158° |
| 2026-04-22 17:12 | 11.92723 | 121.96429 | 26 ft | 2 kts | 158° |
| 2026-04-22 17:13 | 11.92710 | 121.96437 | 26 ft | 2 kts | 152° |
| 2026-04-22 17:13 | 11.92707 | 121.96438 | 26 ft | 0 kts | 152° |
| 2026-04-22 17:15 | 11.92706 | 121.96439 | 26 ft | 0 kts | 152° |